Terminal Aerodrome Forecast
Issued by NWS Los Angeles, CA

Home | Current Version | Previous Version | Text Only | Print | Product List | Glossary On
Versions: 1 2 3 4 5 6 7 8 9 10 11 12 13 14 15 16
000
FTUS46 KLOX 021100
TAFSMX
TAF
KSMX 021125Z 0212/0312 VRB03KT P6SM SCT080
     FM022100 26008KT P6SM VCSH BKN035
     FM030300 VRB03KT P6SM SCT040=

USA.gov is the U.S. government's official web portal to all federal, state and local government web resources and services.